| Date | Time | Temp. (oF) | Dew Point (oF) | Rel. Hum. (%) | Press. (in.) | Wind Dir. | Wind Speed (mph) | Hourly Rainfall (in.) |
|
|---|---|---|---|---|---|---|---|---|---|
| 1 | 12/07 | 00:00 | 32 | 29 | 90 | 30.22 | N | 0 | 0.00 |
| 2 | 12/06 | 23:00 | 33 | 30 | 89 | 30.23 | N | 0 | 0.00 |
| 3 | 12/06 | 22:00 | 33 | 29 | 86 | 30.24 | SSE | 0 | 0.00 |
| 4 | 12/06 | 21:00 | 35 | 30 | 85 | 30.25 | S | 0 | 0.00 |
| 5 | 12/06 | 20:00 | 37 | 32 | 82 | 30.27 | S | 0 | 0.00 |
| 6 | 12/06 | 19:00 | 41 | 34 | 77 | 30.28 | S | 0 | 0.00 |
| 7 | 12/06 | 18:00 | 42 | 34 | 75 | 30.28 | NNE | 0 | 0.00 |
| 8 | 12/06 | 17:00 | 44 | 34 | 70 | 30.27 | ESE | 1 | 0.00 |
| 9 | 12/06 | 16:00 | 49 | 35 | 60 | 30.30 | SE | 0 | 0.00 |
| 10 | 12/06 | 15:00 | 51 | 35 | 56 | 30.31 | SSW | 0 | 0.00 |
| 11 | 12/06 | 14:00 | 51 | 36 | 58 | 30.33 | SSW | 3 | 0.00 |
| 12 | 12/06 | 13:00 | 48 | 36 | 65 | 30.36 | ENE | 1 | 0.00 |
| 13 | 12/06 | 12:00 | 44 | 37 | 77 | 30.39 | ENE | 0 | 0.00 |
| 14 | 12/06 | 11:00 | 37 | 34 | 91 | 30.44 | NE | 0 | 0.00 |
| 15 | 12/06 | 10:00 | 30 | 27 | 91 | 30.47 | S | 0 | 0.00 |
| 16 | 12/06 | 09:00 | 27 | 24 | 92 | 30.49 | S | 0 | 0.00 |
| 17 | 12/06 | 08:00 | 25 | 23 | 92 | 30.49 | SSW | 0 | 0.00 |
| 18 | 12/06 | 07:00 | 25 | 22 | 91 | 30.50 | S | 0 | 0.00 |
| 19 | 12/06 | 06:00 | 24 | 21 | 91 | 30.50 | S | 0 | 0.00 |
| 20 | 12/06 | 05:00 | 25 | 22 | 91 | 30.50 | S | 0 | 0.00 |
| 21 | 12/06 | 04:00 | 26 | 23 | 90 | 30.51 | SW | 0 | 0.00 |
| 22 | 12/06 | 03:00 | 26 | 23 | 90 | 30.54 | SSW | 0 | 0.00 |
| 23 | 12/06 | 02:00 | 27 | 24 | 89 | 30.55 | S | 0 | 0.00 |
| 24 | 12/06 | 01:00 | 27 | 24 | 89 | 30.56 | E | 0 | 0.00 |